Time;durP1;ratioP1;P1;durP2;ratioP2;P2;SDS_P1;SDS_P2;PMS_P1;PMS_P2;Temp;Humidity;BMP_temperature;BMP_pressure;BME280_temperature;BME280_humidity;BME280_pressure;Samples;Min_cycle;Max_cycle;Signal;HPM_P1;HPM_P2
2021/05/19 00:02:04;;;;;;;12.30;11.13;;;;;;;;;;6216095;23;20345;-80
2021/05/19 00:04:30;;;;;;;14.48;12.98;;;;;;;;;;6216609;23;20357;-82
2021/05/19 00:06:56;;;;;;;13.10;11.80;;;;;;;;;;6242892;23;20370;-80
2021/05/19 00:09:22;;;;;;;12.93;11.63;;;;;;;;;;6243065;23;20367;-81
2021/05/19 00:11:48;;;;;;;14.13;12.67;;;;;;;;;;6242990;23;20344;-80
2021/05/19 00:14:15;;;;;;;13.32;12.02;;;;;;;;;;6242993;23;20869;-82
2021/05/19 00:16:42;;;;;;;13.30;11.70;;;;;;;;;;6242275;23;20364;-82
2021/05/19 00:19:08;;;;;;;14.15;12.15;;;;;;;;;;6215302;23;20348;-81
2021/05/19 00:21:34;;;;;;;13.55;12.15;;;;;;;;;;6242081;23;20344;-81
2021/05/19 00:24:00;;;;;;;15.05;12.48;;;;;;;;;;6242032;23;20336;-79
2021/05/19 00:26:26;;;;;;;13.70;12.17;;;;;;;;;;6214863;23;20441;-81
2021/05/19 00:28:53;;;;;;;13.50;12.03;;;;;;;;;;6241682;23;20783;-79
2021/05/19 00:31:22;;;;;;;13.95;12.43;;;;;;;;;;6241730;23;20383;-82
2021/05/19 00:33:48;;;;;;;13.27;11.95;;;;;;;;;;6215080;23;20869;-81
2021/05/19 00:36:14;;;;;;;13.30;11.90;;;;;;;;;;6242076;23;20454;-81
2021/05/19 00:38:40;;;;;;;12.37;11.07;;;;;;;;;;6215517;23;20348;-80
2021/05/19 00:41:12;;;;;;;14.70;12.00;;;;;;;;;;6242435;23;20351;-82
2021/05/19 00:43:38;;;;;;;12.37;11.17;;;;;;;;;;6216174;23;20637;-80
2021/05/19 00:46:04;;;;;;;13.15;11.80;;;;;;;;;;6242353;23;20345;-82
2021/05/19 00:48:30;;;;;;;12.73;11.43;;;;;;;;;;6215336;23;20340;-80
2021/05/19 00:50:56;;;;;;;12.57;11.27;;;;;;;;;;6242844;23;20447;-79
2021/05/19 00:53:22;;;;;;;14.23;11.55;;;;;;;;;;6242281;23;20374;-82
2021/05/19 00:55:48;;;;;;;11.68;10.50;;;;;;;;;;6214914;23;20372;-82
2021/05/19 00:58:14;;;;;;;13.53;12.17;;;;;;;;;;6214876;23;20357;-81
2021/05/19 01:00:40;;;;;;;14.07;11.32;;;;;;;;;;6242060;23;20399;-82
2021/05/19 01:03:07;;;;;;;14.82;11.63;;;;;;;;;;6242316;23;20470;-82
2021/05/19 01:10:50;;;;;;;12.95;11.75;;;;;;;;;;6241813;23;20783;-81
2021/05/19 01:13:16;;;;;;;13.52;12.13;;;;;;;;;;6242219;23;20341;-81
2021/05/19 01:15:42;;;;;;;13.27;11.83;;;;;;;;;;6214930;23;20403;-80
2021/05/19 01:18:09;;;;;;;13.27;11.98;;;;;;;;;;6241571;23;20332;-80
2021/05/19 01:20:35;;;;;;;12.85;11.65;;;;;;;;;;6215046;23;20356;-81
2021/05/19 01:23:02;;;;;;;14.32;12.82;;;;;;;;;;6242039;23;20336;-79
2021/05/19 01:25:29;;;;;;;13.77;12.27;;;;;;;;;;6241764;23;20344;-81
2021/05/19 01:27:56;;;;;;;12.77;11.48;;;;;;;;;;6241939;23;20786;-82
2021/05/19 01:30:22;;;;;;;13.35;11.95;;;;;;;;;;6242132;23;20421;-83
2021/05/19 01:32:48;;;;;;;13.63;12.32;;;;;;;;;;6241655;23;20414;-79
2021/05/19 01:35:15;;;;;;;14.77;12.43;;;;;;;;;;6241541;23;20398;-83
2021/05/19 01:37:41;;;;;;;12.85;11.60;;;;;;;;;;6214990;23;20340;-80
2021/05/19 01:40:08;;;;;;;13.07;11.70;;;;;;;;;;6241989;23;20402;-82
2021/05/19 01:42:34;;;;;;;13.02;11.82;;;;;;;;;;6242295;23;20398;-80
2021/05/19 01:45:00;;;;;;;14.75;11.52;;;;;;;;;;6241997;23;20431;-81
2021/05/19 01:47:34;;;;;;;13.43;12.02;;;;;;;;;;6242515;23;20451;-80
2021/05/19 01:50:00;;;;;;;13.23;11.87;;;;;;;;;;6243871;23;20844;-79
2021/05/19 01:52:27;;;;;;;12.57;11.27;;;;;;;;;;6243370;23;20423;-79
2021/05/19 01:54:53;;;;;;;12.70;11.50;;;;;;;;;;6243222;23;20455;-82
2021/05/19 01:57:19;;;;;;;13.38;11.90;;;;;;;;;;6243638;23;20332;-80
2021/05/19 01:59:45;;;;;;;12.73;11.43;;;;;;;;;;6243084;23;20375;-81
2021/05/19 02:02:11;;;;;;;13.57;12.27;;;;;;;;;;6241526;23;20396;-80
2021/05/19 02:04:39;;;;;;;12.85;11.55;;;;;;;;;;6214796;23;20378;-82
2021/05/19 02:07:05;;;;;;;12.93;11.73;;;;;;;;;;6240568;23;20339;-81
2021/05/19 02:09:32;;;;;;;13.32;12.02;;;;;;;;;;6241512;23;20341;-81
2021/05/19 02:11:58;;;;;;;13.95;12.50;;;;;;;;;;6241597;23;20336;-79
2021/05/19 02:14:24;;;;;;;13.45;12.15;;;;;;;;;;6214794;23;20671;-83
2021/05/19 02:16:50;;;;;;;14.38;12.60;;;;;;;;;;6240977;23;20372;-81
2021/05/19 02:19:16;;;;;;;13.50;12.10;;;;;;;;;;6241597;23;20339;-83
2021/05/19 02:21:43;;;;;;;13.80;12.40;;;;;;;;;;6241311;23;20337;-83
2021/05/19 02:24:10;;;;;;;14.25;12.10;;;;;;;;;;6241892;23;20328;-81
2021/05/19 02:26:37;;;;;;;13.55;12.25;;;;;;;;;;6243184;23;20368;-81
2021/05/19 02:29:04;;;;;;;14.43;12.05;;;;;;;;;;6243678;23;20337;-82
2021/05/19 02:31:30;;;;;;;12.70;11.38;;;;;;;;;;6243089;23;20775;-83
2021/05/19 02:33:56;;;;;;;12.93;11.65;;;;;;;;;;6215956;23;20366;-82
2021/05/19 02:36:22;;;;;;;12.97;11.47;;;;;;;;;;6242729;23;20850;-81
2021/05/19 02:38:48;;;;;;;13.90;12.50;;;;;;;;;;6242684;23;20332;-82
2021/05/19 02:41:14;;;;;;;13.10;11.63;;;;;;;;;;6241943;23;20633;-80
2021/05/19 02:43:40;;;;;;;12.15;10.85;;;;;;;;;;6240921;23;20371;-80
2021/05/19 02:46:06;;;;;;;13.95;12.45;;;;;;;;;;6240861;23;20398;-82
2021/05/19 02:48:33;;;;;;;12.98;11.73;;;;;;;;;;6241202;23;20332;-82
2021/05/19 02:50:59;;;;;;;14.40;13.00;;;;;;;;;;6240608;23;20482;-81
2021/05/19 02:53:25;;;;;;;12.48;11.38;;;;;;;;;;6240865;23;20340;-83
2021/05/19 02:55:51;;;;;;;13.88;12.50;;;;;;;;;;6240392;23;20368;-82
2021/05/19 02:58:17;;;;;;;13.13;11.93;;;;;;;;;;6214016;23;20712;-79
2021/05/19 03:00:43;;;;;;;13.10;11.70;;;;;;;;;;6240634;23;20744;-82
2021/05/19 03:03:09;;;;;;;13.10;11.77;;;;;;;;;;6241068;23;20402;-81
2021/05/19 03:05:35;;;;;;;12.50;11.27;;;;;;;;;;6240718;23;20395;-80
2021/05/19 03:08:01;;;;;;;12.55;11.32;;;;;;;;;;6213744;23;20768;-81
2021/05/19 03:10:28;;;;;;;12.48;11.20;;;;;;;;;;6240615;23;20355;-80
2021/05/19 03:12:55;;;;;;;12.35;11.13;;;;;;;;;;6240771;23;20332;-80
2021/05/19 03:15:23;;;;;;;11.98;10.88;;;;;;;;;;6241066;23;20368;-81
2021/05/19 03:17:49;;;;;;;14.98;11.93;;;;;;;;;;6214069;23;20345;-79
2021/05/19 03:20:15;;;;;;;13.20;11.90;;;;;;;;;;6242269;23;20394;-80
2021/05/19 03:22:41;;;;;;;13.65;12.15;;;;;;;;;;6215318;23;20447;-82
2021/05/19 03:25:08;;;;;;;12.93;11.68;;;;;;;;;;6242651;23;20340;-83
2021/05/19 03:27:34;;;;;;;13.10;11.90;;;;;;;;;;6216070;23;20340;-82
2021/05/19 03:30:00;;;;;;;13.93;12.63;;;;;;;;;;6242712;23;20371;-81
2021/05/19 03:32:26;;;;;;;15.38;13.07;;;;;;;;;;6242508;23;20337;-81
2021/05/19 03:34:52;;;;;;;16.50;13.27;;;;;;;;;;6242388;23;20537;-83
2021/05/19 03:37:18;;;;;;;16.47;13.73;;;;;;;;;;6215711;23;20435;-83
2021/05/19 03:39:44;;;;;;;15.50;13.90;;;;;;;;;;6242469;23;20347;-81
2021/05/19 03:42:10;;;;;;;15.20;13.68;;;;;;;;;;6215496;23;20443;-81
2021/05/19 03:44:36;;;;;;;15.80;14.18;;;;;;;;;;6215922;23;20379;-82
2021/05/19 03:47:02;;;;;;;16.00;14.38;;;;;;;;;;6242636;23;20352;-81
2021/05/19 03:49:31;;;;;;;15.95;14.27;;;;;;;;;;6242645;23;20348;-81
2021/05/19 03:51:57;;;;;;;14.95;13.45;;;;;;;;;;6242580;23;20401;-80
2021/05/19 03:54:23;;;;;;;15.93;14.25;;;;;;;;;;6242673;23;20431;-82
2021/05/19 03:56:50;;;;;;;15.43;13.82;;;;;;;;;;6242486;23;20392;-81
2021/05/19 03:59:16;;;;;;;15.32;13.77;;;;;;;;;;6242104;23;20352;-80
2021/05/19 04:01:42;;;;;;;15.68;14.07;;;;;;;;;;6242134;23;20671;-83
2021/05/19 04:04:08;;;;;;;15.40;13.80;;;;;;;;;;6242449;23;20341;-81
2021/05/19 04:06:34;;;;;;;16.25;14.65;;;;;;;;;;6215342;23;20348;-81
2021/05/19 04:09:00;;;;;;;15.80;14.20;;;;;;;;;;6242152;23;20340;-83
2021/05/19 04:11:26;;;;;;;15.60;14.00;;;;;;;;;;6215406;23;20412;-82
2021/05/19 04:13:52;;;;;;;15.50;13.87;;;;;;;;;;6242363;23;20363;-82
2021/05/19 04:16:18;;;;;;;15.27;13.77;;;;;;;;;;6242491;23;20368;-77
2021/05/19 04:18:44;;;;;;;15.20;13.60;;;;;;;;;;6242246;23;20344;-81
2021/05/19 04:21:10;;;;;;;14.38;12.98;;;;;;;;;;6242212;23;20364;-80
2021/05/19 04:23:36;;;;;;;15.77;14.07;;;;;;;;;;6215330;23;20376;-81
2021/05/19 04:26:02;;;;;;;14.25;12.82;;;;;;;;;;6241990;23;20343;-82
2021/05/19 04:28:28;;;;;;;13.88;12.27;;;;;;;;;;6242196;23;20339;-81
2021/05/19 04:30:54;;;;;;;14.40;13.00;;;;;;;;;;6241750;23;20332;-81
2021/05/19 04:33:22;;;;;;;13.38;12.15;;;;;;;;;;6242125;23;20332;-79
2021/05/19 04:35:48;;;;;;;12.48;11.18;;;;;;;;;;6214896;23;20754;-80
2021/05/19 04:38:14;;;;;;;12.18;10.57;;;;;;;;;;6242000;23;20352;-80
2021/05/19 04:40:40;;;;;;;12.63;11.43;;;;;;;;;;6215060;23;20703;-81
2021/05/19 04:43:08;;;;;;;13.63;11.77;;;;;;;;;;6242347;23;20724;-80
2021/05/19 04:45:35;;;;;;;12.85;11.55;;;;;;;;;;6241699;23;20348;-79
2021/05/19 04:48:02;;;;;;;12.65;11.23;;;;;;;;;;6215342;23;20348;-80
2021/05/19 04:50:28;;;;;;;13.13;11.20;;;;;;;;;;6241759;23;20336;-82
2021/05/19 04:52:54;;;;;;;11.50;10.37;;;;;;;;;;6241939;23;20423;-81
2021/05/19 04:55:20;;;;;;;11.97;10.77;;;;;;;;;;6241796;23;20811;-81
2021/05/19 04:57:46;;;;;;;12.50;11.30;;;;;;;;;;6214802;23;20844;-82
2021/05/19 05:00:12;;;;;;;12.50;11.30;;;;;;;;;;6241531;23;20375;-80
2021/05/19 05:02:39;;;;;;;11.27;10.27;;;;;;;;;;6241841;23;20799;-80
2021/05/19 05:05:06;;;;;;;11.52;10.45;;;;;;;;;;6241699;23;20332;-80
2021/05/19 05:07:32;;;;;;;11.30;10.02;;;;;;;;;;6241719;23;20371;-82
2021/05/19 05:10:00;;;;;;;11.52;10.43;;;;;;;;;;6241374;23;20336;-81
2021/05/19 05:12:26;;;;;;;11.75;10.63;;;;;;;;;;6214367;23;20883;-80
2021/05/19 05:14:52;;;;;;;10.77;9.77;;;;;;;;;;6214796;23;20386;-83
2021/05/19 05:17:18;;;;;;;11.80;10.60;;;;;;;;;;6241287;23;20699;-83
2021/05/19 05:19:44;;;;;;;11.68;10.48;;;;;;;;;;6241568;23;20329;-84
2021/05/19 05:22:10;;;;;;;12.25;11.10;;;;;;;;;;6241832;23;20339;-80
2021/05/19 05:24:37;;;;;;;13.23;11.18;;;;;;;;;;6214703;23;20427;-81
2021/05/19 05:27:03;;;;;;;13.32;11.13;;;;;;;;;;6241175;23;20423;-82
2021/05/19 05:29:29;;;;;;;11.93;10.63;;;;;;;;;;6241454;23;20379;-82
2021/05/19 05:31:55;;;;;;;11.40;9.98;;;;;;;;;;6214454;23;20352;-82
2021/05/19 05:34:21;;;;;;;11.45;10.25;;;;;;;;;;6214740;23;20664;-84
2021/05/19 05:36:47;;;;;;;12.98;11.52;;;;;;;;;;6241492;23;20364;-83
2021/05/19 05:39:13;;;;;;;12.80;11.50;;;;;;;;;;6241497;23;20711;-81
2021/05/19 05:41:40;;;;;;;12.90;11.68;;;;;;;;;;6241517;23;20694;-81
2021/05/19 05:44:06;;;;;;;12.02;10.82;;;;;;;;;;6241056;23;20419;-81
2021/05/19 05:46:32;;;;;;;12.20;10.90;;;;;;;;;;6214075;23;21167;-82
2021/05/19 05:48:59;;;;;;;10.80;9.70;;;;;;;;;;6214415;23;20351;-81
2021/05/19 05:51:25;;;;;;;11.25;10.07;;;;;;;;;;6214596;23;20407;-83
2021/05/19 05:53:51;;;;;;;10.45;9.35;;;;;;;;;;6241279;23;20360;-81
2021/05/19 05:56:17;;;;;;;9.43;8.50;;;;;;;;;;6213899;23;20869;-83
2021/05/19 05:58:43;;;;;;;10.38;9.32;;;;;;;;;;6241219;23;20810;-82
2021/05/19 06:01:10;;;;;;;10.50;8.77;;;;;;;;;;6214418;23;20355;-82
2021/05/19 06:03:36;;;;;;;9.03;8.13;;;;;;;;;;6213707;23;20348;-82
2021/05/19 06:06:04;;;;;;;8.50;7.60;;;;;;;;;;6240352;23;20861;-81
2021/05/19 06:08:30;;;;;;;8.70;7.43;;;;;;;;;;6213576;23;20424;-84
2021/05/19 06:10:56;;;;;;;8.50;6.93;;;;;;;;;;6240809;23;20712;-83
2021/05/19 06:13:23;;;;;;;7.15;6.45;;;;;;;;;;6240166;23;20381;-82
2021/05/19 06:15:49;;;;;;;6.90;6.20;;;;;;;;;;6240796;23;20368;-79
2021/05/19 06:18:15;;;;;;;8.30;6.70;;;;;;;;;;6241513;23;20386;-80
2021/05/19 06:20:41;;;;;;;6.40;5.80;;;;;;;;;;6240027;23;20337;-86
2021/05/19 06:23:07;;;;;;;6.17;5.57;;;;;;;;;;6212564;23;21069;-83
2021/05/19 06:25:33;;;;;;;6.28;5.68;;;;;;;;;;6239351;23;20391;-82
2021/05/19 06:27:59;;;;;;;6.47;5.60;;;;;;;;;;6240756;23;20340;-82
2021/05/19 06:30:25;;;;;;;6.30;5.70;;;;;;;;;;6240616;23;20347;-84
2021/05/19 06:32:51;;;;;;;8.13;6.20;;;;;;;;;;6241020;23;20341;-87
2021/05/19 06:35:17;;;;;;;6.97;5.32;;;;;;;;;;6239716;23;20379;-82
2021/05/19 06:37:43;;;;;;;8.48;5.90;;;;;;;;;;6241161;23;20640;-82
2021/05/19 06:40:10;;;;;;;6.78;5.47;;;;;;;;;;6240818;23;20340;-82
2021/05/19 06:42:36;;;;;;;5.80;5.20;;;;;;;;;;6214106;23;20372;-83
2021/05/19 06:45:02;;;;;;;5.35;4.60;;;;;;;;;;6241255;23;20344;-83
2021/05/19 06:47:28;;;;;;;5.30;4.35;;;;;;;;;;6241347;23;20332;-82
2021/05/19 06:49:56;;;;;;;7.23;4.20;;;;;;;;;;6241138;23;20431;-81
2021/05/19 06:52:22;;;;;;;5.75;4.53;;;;;;;;;;6240699;23;20336;-82
2021/05/19 06:54:49;;;;;;;4.78;4.13;;;;;;;;;;6240747;23;20336;-81
2021/05/19 06:57:15;;;;;;;5.35;4.35;;;;;;;;;;6241068;23;20853;-84
2021/05/19 06:59:41;;;;;;;5.03;4.03;;;;;;;;;;6214640;23;20618;-85
2021/05/19 07:02:07;;;;;;;4.70;4.30;;;;;;;;;;6240986;23;20345;-81
2021/05/19 07:04:33;;;;;;;6.13;4.78;;;;;;;;;;6241146;23;20368;-85
2021/05/19 07:07:00;;;;;;;5.88;4.22;;;;;;;;;;6240541;23;20790;-84
2021/05/19 07:09:26;;;;;;;6.18;4.50;;;;;;;;;;6240775;23;20405;-83
2021/05/19 07:11:53;;;;;;;5.05;4.53;;;;;;;;;;6240772;23;20394;-83
2021/05/19 07:14:19;;;;;;;6.40;4.90;;;;;;;;;;6241186;23;20336;-83
2021/05/19 07:16:53;;;;;;;5.63;4.70;;;;;;;;;;6241175;23;20822;-84
2021/05/19 07:19:20;;;;;;;4.30;3.90;;;;;;;;;;6241289;23;20336;-83
2021/05/19 07:21:46;;;;;;;5.45;4.80;;;;;;;;;;6241169;23;20332;-82
2021/05/19 07:24:12;;;;;;;5.10;4.60;;;;;;;;;;6241034;23;20328;-81
2021/05/19 07:26:40;;;;;;;5.00;4.50;;;;;;;;;;6241238;23;20337;-80
2021/05/19 07:29:06;;;;;;;6.18;5.28;;;;;;;;;;6216171;23;20761;-82
2021/05/19 07:31:33;;;;;;;5.85;5.25;;;;;;;;;;6214797;23;20376;-85
2021/05/19 07:33:59;;;;;;;5.68;4.28;;;;;;;;;;6242035;23;20364;-83
2021/05/19 07:36:25;;;;;;;3.83;3.42;;;;;;;;;;6215384;23;20430;-83
2021/05/19 07:38:51;;;;;;;5.38;4.10;;;;;;;;;;6241470;23;20340;-82
2021/05/19 07:41:17;;;;;;;3.70;3.40;;;;;;;;;;6214405;23;20435;-84
2021/05/19 07:43:43;;;;;;;5.38;4.10;;;;;;;;;;6236982;23;20341;-85
2021/05/19 07:46:09;;;;;;;4.82;3.78;;;;;;;;;;6237515;23;20355;-81
2021/05/19 07:48:35;;;;;;;4.22;3.80;;;;;;;;;;6240321;23;20333;-82
2021/05/19 07:51:01;;;;;;;4.93;4.18;;;;;;;;;;6239250;23;20390;-82
2021/05/19 07:53:27;;;;;;;5.63;4.38;;;;;;;;;;6240324;23;20360;-84
2021/05/19 07:56:15;;;;;;;5.43;3.85;;;;;;;;;;6213709;23;20380;-85
2021/05/19 07:58:46;;;;;;;5.25;4.47;;;;;;;;;;6212868;22;20720;-83
2021/05/19 08:03:38;;;;;;;5.22;4.22;;;;;;;;;;6240837;23;20741;-81
2021/05/19 08:06:04;;;;;;;5.70;4.17;;;;;;;;;;6241009;23;20427;-82
2021/05/19 08:08:30;;;;;;;5.57;4.03;;;;;;;;;;6243924;23;20678;-80
2021/05/19 08:10:56;;;;;;;6.45;3.72;;;;;;;;;;6224358;23;20340;-83
2021/05/19 08:13:22;;;;;;;5.20;3.90;;;;;;;;;;6251583;23;20333;-80
2021/05/19 08:15:48;;;;;;;5.50;4.10;;;;;;;;;;6251703;23;20391;-80
2021/05/19 08:18:14;;;;;;;4.10;3.70;;;;;;;;;;6219844;23;20344;-84
2021/05/19 08:20:40;;;;;;;4.53;3.70;;;;;;;;;;6241977;23;20374;-84
2021/05/19 08:23:07;;;;;;;4.20;3.80;;;;;;;;;;6214763;23;20876;-81
2021/05/19 09:19:40;;;;;;;3.60;3.28;;;;;;;;;;5092528;28;20364;-84
2021/05/19 09:22:15;;;;;;;3.50;2.80;;;;;;;;;;5090421;28;20419;-80
2021/05/19 09:24:42;;;;;;;3.42;2.92;;;;;;;;;;5099705;28;20380;-84
2021/05/19 09:27:08;;;;;;;2.87;2.63;;;;;;;;;;5086519;28;20363;-85
2021/05/19 09:29:36;;;;;;;3.05;2.55;;;;;;;;;;5089842;28;20360;-83
2021/05/19 09:32:04;;;;;;;3.75;2.60;;;;;;;;;;5090720;28;20430;-81
2021/05/19 09:34:37;;;;;;;3.47;2.90;;;;;;;;;;5082709;28;20452;-85
2021/05/19 09:37:12;;;;;;;4.40;2.75;;;;;;;;;;5070746;28;20703;-86
2021/05/19 09:39:45;;;;;;;3.50;2.20;;;;;;;;;;5092922;28;20390;-83
2021/05/19 09:42:11;;;;;;;4.43;2.20;;;;;;;;;;5096436;28;20895;-79
2021/05/19 09:44:38;;;;;;;3.53;2.13;;;;;;;;;;5085787;28;20373;-85
2021/05/19 09:47:04;;;;;;;3.37;2.00;;;;;;;;;;5097671;28;20377;-82
2021/05/19 09:49:29;;;;;;;2.77;2.10;;;;;;;;;;5090425;28;20764;-80
2021/05/19 09:51:59;;;;;;;2.35;1.88;;;;;;;;;;5091068;28;20874;-79
2021/05/19 09:54:25;;;;;;;2.60;1.92;;;;;;;;;;5098592;28;20414;-81
2021/05/19 09:56:55;;;;;;;2.60;2.13;;;;;;;;;;5085935;28;20415;-82
2021/05/19 09:59:22;;;;;;;2.13;1.92;;;;;;;;;;5096630;28;20465;-81
2021/05/19 10:01:48;;;;;;;3.78;2.13;;;;;;;;;;5095790;28;20431;-83
2021/05/19 10:04:14;;;;;;;4.95;2.28;;;;;;;;;;5088143;28;20408;-82
2021/05/19 10:06:41;;;;;;;2.25;2.05;;;;;;;;;;5095675;28;20408;-82
2021/05/19 10:09:07;;;;;;;3.53;2.20;;;;;;;;;;5086219;28;20429;-84
2021/05/19 10:11:33;;;;;;;4.03;2.20;;;;;;;;;;5094144;28;20848;-81
2021/05/19 10:14:02;;;;;;;3.30;2.23;;;;;;;;;;5094258;28;20448;-82
2021/05/19 10:16:28;;;;;;;5.57;2.60;;;;;;;;;;5084548;28;20385;-80
2021/05/19 10:18:58;;;;;;;3.40;2.35;;;;;;;;;;5098073;28;20406;-80
2021/05/19 10:21:30;;;;;;;4.40;2.40;;;;;;;;;;5088538;28;20371;-80
2021/05/19 10:24:11;;;;;;;2.20;2.00;;;;;;;;;;5091173;28;20464;-82
2021/05/19 10:26:55;;;;;;;3.72;2.58;;;;;;;;;;5099056;28;20383;-82
2021/05/19 10:29:40;;;;;;;6.80;2.10;;;;;;;;;;5069486;28;20382;-81
2021/05/19 10:32:21;;;;;;;3.47;2.30;;;;;;;;;;5055720;28;20376;-82
2021/05/19 10:34:51;;;;;;;4.35;2.28;;;;;;;;;;5053125;28;20392;-82
2021/05/19 10:37:26;;;;;;;2.63;1.90;;;;;;;;;;5081227;28;20385;-80
2021/05/19 10:40:08;;;;;;;2.20;1.80;;;;;;;;;;5080269;28;20857;-84
2021/05/19 10:42:39;;;;;;;6.35;2.20;;;;;;;;;;5070705;28;20432;-83
2021/05/19 10:45:07;;;;;;;3.50;1.93;;;;;;;;;;5084068;28;20396;-81
2021/05/19 10:47:33;;;;;;;3.10;1.80;;;;;;;;;;5077330;28;20398;-81
2021/05/19 10:57:09;;;;;;;2.15;1.95;;;;;;;;;;5085707;28;20479;-83
2021/05/19 10:58:30;;;;;;;7.50;2.10;;;;;;;;;;5073114;28;20547;-80
2021/05/19 11:00:56;;;;;;;2.58;2.03;;;;;;;;;;5083626;28;20995;-82
2021/05/19 11:03:24;;;;;;;3.25;2.00;;;;;;;;;;5075161;28;20369;-84
2021/05/19 11:05:53;;;;;;;2.27;2.07;;;;;;;;;;5075810;28;20780;-83
2021/05/19 11:08:19;;;;;;;3.28;2.22;;;;;;;;;;5059947;28;20380;-82
2021/05/19 11:10:48;;;;;;;2.97;1.90;;;;;;;;;;5064809;28;20467;-83
2021/05/19 11:13:14;;;;;;;2.50;1.88;;;;;;;;;;5061057;28;20460;-81
2021/05/19 11:18:18;;;;;;;2.65;2.20;;;;;;;;;;5058874;28;20419;-84
2021/05/19 11:20:44;;;;;;;4.20;1.80;;;;;;;;;;5058402;28;20384;-82
2021/05/19 11:23:11;;;;;;;3.65;2.40;;;;;;;;;;5058990;28;20373;-82
2021/05/19 11:25:37;;;;;;;2.47;2.25;;;;;;;;;;5058742;28;20372;-80
2021/05/19 11:28:03;;;;;;;2.38;2.17;;;;;;;;;;5057297;28;20372;-82
2021/05/19 11:30:30;;;;;;;2.55;2.10;;;;;;;;;;5058075;28;20379;-82
2021/05/19 11:33:10;;;;;;;7.15;2.40;;;;;;;;;;5060968;28;20369;-82
2021/05/19 11:35:36;;;;;;;2.45;2.00;;;;;;;;;;5057412;28;20495;-82
2021/05/19 11:38:08;;;;;;;4.60;2.13;;;;;;;;;;5057249;28;20400;-85
2021/05/19 11:40:44;;;;;;;3.33;2.25;;;;;;;;;;5061344;28;20894;-81
2021/05/19 11:43:11;;;;;;;2.25;2.05;;;;;;;;;;5056672;28;20755;-87
2021/05/19 11:45:37;;;;;;;2.85;2.00;;;;;;;;;;5056251;28;20478;-80
2021/05/19 11:48:03;;;;;;;3.05;1.90;;;;;;;;;;5071806;28;20451;-80
2021/05/19 11:50:32;;;;;;;3.10;2.10;;;;;;;;;;5069172;28;20386;-83
2021/05/19 11:53:03;;;;;;;2.58;2.20;;;;;;;;;;5053935;28;20367;-84
2021/05/19 11:55:42;;;;;;;2.47;1.95;;;;;;;;;;5063939;28;20800;-83
2021/05/19 11:58:17;;;;;;;1.92;1.80;;;;;;;;;;5060445;28;20414;-84
2021/05/19 12:00:51;;;;;;;2.80;2.00;;;;;;;;;;5062884;28;20515;-82
2021/05/19 12:03:18;;;;;;;3.05;1.90;;;;;;;;;;5061031;28;20382;-82
2021/05/19 12:05:46;;;;;;;2.85;2.17;;;;;;;;;;5059689;28;20454;-82
2021/05/19 12:08:13;;;;;;;2.60;2.00;;;;;;;;;;5058428;28;20383;-81
2021/05/19 12:10:41;;;;;;;2.28;1.88;;;;;;;;;;5063722;28;20370;-81
2021/05/19 12:13:07;;;;;;;4.03;2.30;;;;;;;;;;5061432;28;20910;-82
2021/05/19 12:15:34;;;;;;;2.15;1.67;;;;;;;;;;5053014;28;20445;-83
2021/05/19 12:18:00;;;;;;;2.20;2.00;;;;;;;;;;5061197;28;20412;-82
2021/05/19 12:20:28;;;;;;;2.35;2.03;;;;;;;;;;5057434;28;20410;-85
2021/05/19 12:22:55;;;;;;;3.85;2.42;;;;;;;;;;5062645;28;20411;-83
2021/05/19 12:25:21;;;;;;;2.50;2.30;;;;;;;;;;5076117;28;20404;-85
2021/05/19 12:27:51;;;;;;;2.60;2.40;;;;;;;;;;5076752;28;20920;-84
2021/05/19 12:30:23;;;;;;;2.90;2.30;;;;;;;;;;5081729;28;20404;-89
2021/05/19 12:32:58;;;;;;;4.72;2.47;;;;;;;;;;5067307;28;20423;-83
2021/05/19 12:35:28;;;;;;;3.35;2.40;;;;;;;;;;5065279;28;21123;-86
2021/05/19 12:38:02;;;;;;;5.40;2.20;;;;;;;;;;5061901;28;21001;-86
2021/05/19 12:40:30;;;;;;;2.22;2.03;;;;;;;;;;5054777;28;20409;-85
2021/05/19 12:42:59;;;;;;;2.40;1.92;;;;;;;;;;5061338;28;20368;-86
2021/05/19 12:45:26;;;;;;;3.08;2.10;;;;;;;;;;5049059;28;20387;-82
2021/05/19 12:48:08;;;;;;;2.47;1.73;;;;;;;;;;5074123;28;20371;-83
2021/05/19 12:50:38;;;;;;;2.45;1.95;;;;;;;;;;5049501;28;20415;-85
2021/05/19 12:53:03;;;;;;;2.38;1.98;;;;;;;;;;5071080;28;20392;-85
2021/05/19 12:55:29;;;;;;;2.80;2.30;;;;;;;;;;5074113;28;20376;-85
2021/05/19 12:58:16;;;;;;;2.20;1.90;;;;;;;;;;5074752;28;20605;-85
2021/05/19 13:00:55;;;;;;;2.53;2.17;;;;;;;;;;5075312;28;20394;-83
2021/05/19 13:03:32;;;;;;;2.40;2.20;;;;;;;;;;5069468;28;20391;-84
2021/05/19 13:06:02;;;;;;;2.85;1.83;;;;;;;;;;5072981;28;20422;-80
2021/05/19 13:08:30;;;;;;;2.10;1.70;;;;;;;;;;5091892;28;20385;-86
2021/05/19 13:10:57;;;;;;;1.90;1.60;;;;;;;;;;5076691;28;20913;-80
2021/05/19 13:13:28;;;;;;;2.28;1.65;;;;;;;;;;5090264;28;20385;-82
2021/05/19 13:16:02;;;;;;;2.90;1.60;;;;;;;;;;5080478;28;20951;-83
2021/05/19 13:18:41;;;;;;;3.13;1.83;;;;;;;;;;5070069;28;20462;-85
2021/05/19 13:24:05;;;;;;;2.28;1.60;;;;;;;;;;5069620;28;20386;-83
2021/05/19 13:26:32;;;;;;;2.10;1.60;;;;;;;;;;5072837;28;20403;-85
2021/05/19 13:29:00;;;;;;;1.55;1.45;;;;;;;;;;5054383;28;20384;-82
2021/05/19 13:31:43;;;;;;;1.92;1.40;;;;;;;;;;5074312;28;20419;-84
2021/05/19 13:34:22;;;;;;;2.17;1.40;;;;;;;;;;5069715;28;20493;-84
2021/05/19 13:36:49;;;;;;;1.77;1.30;;;;;;;;;;5070844;28;20397;-80
2021/05/19 13:39:22;;;;;;;1.40;1.30;;;;;;;;;;5057322;28;20409;-82
2021/05/19 13:41:53;;;;;;;1.60;1.50;;;;;;;;;;5069077;28;20807;-86
2021/05/19 13:44:20;;;;;;;2.65;1.60;;;;;;;;;;5070300;28;20377;-80
2021/05/19 13:46:48;;;;;;;1.30;1.20;;;;;;;;;;5065919;28;20363;-80
2021/05/19 13:51:48;;;;;;;1.60;1.50;;;;;;;;;;5080638;28;20378;-83
2021/05/19 13:54:14;;;;;;;2.40;2.00;;;;;;;;;;5070818;28;20382;-84
2021/05/19 13:56:42;;;;;;;45.63;6.63;;;;;;;;;;5069004;28;20441;-85
2021/05/19 13:59:08;;;;;;;2.70;1.60;;;;;;;;;;5081631;28;20400;-85
2021/05/19 14:01:35;;;;;;;1.90;1.53;;;;;;;;;;5085463;28;20368;-87
2021/05/19 14:04:01;;;;;;;3.90;1.60;;;;;;;;;;5072881;28;21137;-80
2021/05/19 14:06:27;;;;;;;2.03;1.80;;;;;;;;;;5068671;28;20374;-85
2021/05/19 14:09:05;;;;;;;2.15;1.60;;;;;;;;;;5077494;28;20427;-82
2021/05/19 14:11:33;;;;;;;2.67;1.50;;;;;;;;;;5067361;28;20466;-84
2021/05/19 14:27:22;;;;;;;1.85;1.60;;;;;;;;;;5049285;28;21276;-86
2021/05/19 14:29:50;;;;;;;1.70;1.60;;;;;;;;;;5062369;28;20831;-84
2021/05/19 14:32:23;;;;;;;2.30;1.60;;;;;;;;;;5069281;28;20453;-81
2021/05/19 14:34:57;;;;;;;2.97;1.50;;;;;;;;;;5068721;28;20382;-83
2021/05/19 14:37:51;;;;;;;2.10;1.63;;;;;;;;;;5070260;28;20997;-81
2021/05/19 15:01:32;;;;;;;1.60;1.50;;;;;;;;;;5050558;28;20411;-81
2021/05/19 15:03:59;;;;;;;1.50;1.40;;;;;;;;;;5051908;28;20425;-85
2021/05/19 15:06:27;;;;;;;1.60;1.50;;;;;;;;;;5049892;28;20383;-84
2021/05/19 15:08:53;;;;;;;1.58;1.48;;;;;;;;;;5050541;28;20368;-84
2021/05/19 15:11:19;;;;;;;1.90;1.50;;;;;;;;;;5051554;28;20380;-80
2021/05/19 15:13:45;;;;;;;2.60;1.63;;;;;;;;;;5051647;28;20362;-83
2021/05/19 15:16:12;;;;;;;1.50;1.40;;;;;;;;;;5050861;28;20939;-83
2021/05/19 15:18:38;;;;;;;1.35;1.20;;;;;;;;;;5050186;28;20773;-86
2021/05/19 15:21:04;;;;;;;1.50;1.40;;;;;;;;;;5050894;28;20816;-81
2021/05/19 15:23:30;;;;;;;2.28;1.70;;;;;;;;;;5049990;28;20380;-86
2021/05/19 15:25:56;;;;;;;1.60;1.50;;;;;;;;;;5051088;28;20372;-84
2021/05/19 15:28:23;;;;;;;2.53;1.67;;;;;;;;;;5049298;28;20514;-82
2021/05/19 15:30:53;;;;;;;1.67;1.40;;;;;;;;;;5050980;28;20474;-85
2021/05/19 15:33:19;;;;;;;1.85;1.50;;;;;;;;;;5050714;28;20917;-86
2021/05/19 15:35:45;;;;;;;1.67;1.33;;;;;;;;;;5051276;28;20378;-84
2021/05/19 15:38:11;;;;;;;1.75;1.65;;;;;;;;;;5049831;28;20395;-81
2021/05/19 15:40:37;;;;;;;2.45;1.70;;;;;;;;;;5050576;28;20470;-80
2021/05/19 15:43:03;;;;;;;1.85;1.60;;;;;;;;;;5051542;28;20368;-85
2021/05/19 15:45:29;;;;;;;1.65;1.55;;;;;;;;;;5050809;28;20734;-87
2021/05/19 15:47:55;;;;;;;1.80;1.70;;;;;;;;;;5049002;28;20437;-81
2021/05/19 15:50:21;;;;;;;1.90;1.40;;;;;;;;;;5050345;28;20710;-85
2021/05/19 15:52:48;;;;;;;1.77;1.40;;;;;;;;;;5049345;28;20471;-87
2021/05/19 15:55:14;;;;;;;1.65;1.40;;;;;;;;;;5049436;28;20420;-81
2021/05/19 15:57:40;;;;;;;1.70;1.60;;;;;;;;;;5050629;28;20411;-82
2021/05/19 16:00:08;;;;;;;1.33;1.23;;;;;;;;;;5048255;28;20383;-84
2021/05/19 16:02:34;;;;;;;2.15;1.75;;;;;;;;;;5048281;28;20854;-87
2021/05/19 16:05:00;;;;;;;1.83;1.63;;;;;;;;;;5050407;28;20417;-82
2021/05/19 16:07:26;;;;;;;1.67;1.55;;;;;;;;;;5062109;28;20507;-82
2021/05/19 16:09:53;;;;;;;2.10;1.60;;;;;;;;;;5069689;28;20374;-80
2021/05/19 16:12:26;;;;;;;2.22;1.85;;;;;;;;;;5069374;28;20413;-82
2021/05/19 16:14:52;;;;;;;3.10;2.10;;;;;;;;;;5053237;28;20459;-82
2021/05/19 16:17:18;;;;;;;2.28;1.75;;;;;;;;;;5061641;28;20993;-85
2021/05/19 16:19:46;;;;;;;1.60;1.50;;;;;;;;;;5068167;28;20477;-84
2021/05/19 16:22:13;;;;;;;1.90;1.80;;;;;;;;;;5065066;28;20393;-88
2021/05/19 16:24:39;;;;;;;2.00;1.80;;;;;;;;;;5067908;28;20394;-84
2021/05/19 16:27:06;;;;;;;3.40;1.70;;;;;;;;;;5056132;28;20962;-84